CheckWX is a tool to help pilots better visualize weather data.  It is not intended as a substitute for an official pre-flight weather briefing.

16:03:25 UTC

LYBE TAF
Belgrade Nikola Tesla Airport
Belgrade, Serbia
TAF LYBE 131100Z 1312/1412 14012KT CAVOK TX11/1313Z TN06/1406Z TEMPO 1318/1404 14015G28KT BECMG 1407/1409 26007KT TEMPO 1407/1410 5000 RA TEMPO 1410/1412 BKN007 BKN027

Dec-13@
12:00 UTC

Dec-13 @ 12:00 UTC

Dec-14@
07:00 UTC

Dec-14 @ 07:00 UTC

TAF LYBE 131100Z 1312/1412 14012KT CAVOK TX11/1313Z TN06/1406Z
Wind
  • 140° at 12 KTS
Cloud Levels
  • No significant clouds

Dec-13@
18:00 UTC

Dec-13 @ 18:00 UTC

Dec-14@
04:00 UTC

Dec-14 @ 04:00 UTC

TEMPO 1318/1404 14015G28KT

Temporary

Temporary Changes expected for less than half the time period

Wind
  • 140° at 15 KTS
  • {Gusting to 28 KTS

Dec-14@
07:00 UTC

Dec-14 @ 07:00 UTC

Dec-14@
10:00 UTC

Dec-14 @ 10:00 UTC

TEMPO 1407/1410 5000 RA

Temporary

Temporary Changes expected for less than half the time period

Conditions
Rain

Dec-14@
07:00 UTC

Dec-14 @ 07:00 UTC

Dec-14@
12:00 UTC

Dec-14 @ 12:00 UTC

BECMG 1407/1409 26007KT

Becoming

Becoming Conditions expected by Sat, Dec 14, 2019 @ 09:00 UTC

Wind
  • 260° at 7 KTS
Cloud Levels
  • No significant clouds

Dec-14@
10:00 UTC

Dec-14 @ 10:00 UTC

Dec-14@
12:00 UTC

Dec-14 @ 12:00 UTC

TEMPO 1410/1412 BKN007 BKN027

Temporary

Temporary Changes expected for less than half the time period

Cloud Levels
  • Broken at 700' AGL
  • Broken at 2,700' AGL